createdAt,value
2023-05-03T00:01:43.996Z,55.60
2023-05-03T00:04:10.897Z,55.60
2023-05-03T00:06:37.507Z,55.90
2023-05-03T00:09:04.123Z,56.20
2023-05-03T00:11:30.699Z,55.70
2023-05-03T00:13:57.275Z,55.70
2023-05-03T00:16:23.869Z,56.00
2023-05-03T00:18:50.539Z,55.50
2023-05-03T00:21:17.326Z,55.40
2023-05-03T00:23:43.888Z,55.50
2023-05-03T00:26:10.533Z,55.40
2023-05-03T00:28:37.135Z,55.50
2023-05-03T00:31:10.325Z,55.50
2023-05-03T00:33:37.470Z,56.30
2023-05-03T00:36:08.028Z,56.10
2023-05-03T00:38:34.629Z,55.70
2023-05-03T00:41:03.102Z,55.40
2023-05-03T00:43:29.727Z,55.40
2023-05-03T00:46:08.323Z,55.40
2023-05-03T00:48:42.380Z,55.30
2023-05-03T00:51:09.211Z,55.40
2023-05-03T00:53:35.928Z,55.30
2023-05-03T00:56:03.306Z,55.50
2023-05-03T00:58:33.372Z,56.10
2023-05-03T01:01:00.132Z,55.70
2023-05-03T01:03:26.862Z,55.50
2023-05-03T01:06:12.371Z,55.30
2023-05-03T01:08:50.776Z,55.20
2023-05-03T01:11:21.881Z,55.30
2023-05-03T01:14:07.413Z,55.30
2023-05-03T01:16:40.711Z,55.30
2023-05-03T01:19:13.840Z,55.20
2023-05-03T01:21:42.670Z,55.20
2023-05-03T01:24:17.764Z,55.60
2023-05-03T01:26:44.394Z,55.90
2023-05-03T01:29:10.995Z,55.80
2023-05-03T01:31:44.434Z,55.40
2023-05-03T01:34:17.001Z,54.90
2023-05-03T01:36:44.224Z,54.50
2023-05-03T01:39:13.832Z,54.50
2023-05-03T01:41:41.920Z,54.50
2023-05-03T01:44:09.074Z,54.60
2023-05-03T01:46:41.492Z,54.70
2023-05-03T01:49:08.651Z,54.70
2023-05-03T01:51:35.535Z,54.70
2023-05-03T01:54:02.089Z,54.80
2023-05-03T01:56:29.296Z,54.90
2023-05-03T01:58:55.848Z,55.20
2023-05-03T02:01:22.472Z,55.40
2023-05-03T02:03:49.007Z,54.80
2023-05-03T02:06:15.664Z,54.60
2023-05-03T02:08:42.261Z,54.40
2023-05-03T02:11:08.812Z,54.40
2023-05-03T02:13:37.447Z,54.30
2023-05-03T02:16:04.069Z,54.30
2023-05-03T02:18:31.437Z,54.30
2023-05-03T02:20:58.053Z,54.30
2023-05-03T02:23:24.636Z,55.10
2023-05-03T02:25:51.436Z,54.90
2023-05-03T02:28:18.012Z,54.70
2023-05-03T02:30:44.635Z,54.60
2023-05-03T02:33:11.341Z,54.40
2023-05-03T02:35:38.152Z,54.40
2023-05-03T02:38:04.866Z,54.30
2023-05-03T02:40:31.489Z,54.30
2023-05-03T02:42:58.050Z,54.40
2023-05-03T02:45:24.715Z,54.40
2023-05-03T02:47:51.404Z,54.90
2023-05-03T02:50:18.047Z,55.10
2023-05-03T02:52:44.725Z,55.10
2023-05-03T02:55:11.333Z,54.70
2023-05-03T02:57:38.291Z,54.40
2023-05-03T03:00:06.449Z,54.40
2023-05-03T03:02:33.979Z,54.40
2023-05-03T03:05:00.606Z,54.30
2023-05-03T03:07:27.181Z,54.10
2023-05-03T03:09:53.789Z,54.20
2023-05-03T03:12:20.613Z,54.20
2023-05-03T03:14:47.154Z,54.90
2023-05-03T03:17:13.850Z,54.60
2023-05-03T03:19:40.537Z,54.40
2023-05-03T03:22:07.551Z,54.40
2023-05-03T03:24:34.115Z,54.20
2023-05-03T03:27:00.766Z,54.10
2023-05-03T03:29:29.621Z,54.00
2023-05-03T03:31:56.218Z,54.10
2023-05-03T03:34:22.914Z,55.40
2023-05-03T03:36:49.479Z,54.50
2023-05-03T03:39:16.082Z,54.70
2023-05-03T03:41:42.777Z,54.70
2023-05-03T03:44:09.395Z,54.40
2023-05-03T03:46:36.018Z,54.10
2023-05-03T03:49:02.609Z,54.00
2023-05-03T03:51:29.221Z,54.40
2023-05-03T03:53:55.904Z,54.50
2023-05-03T03:56:23.746Z,54.50
2023-05-03T03:58:50.439Z,54.20
2023-05-03T04:01:16.988Z,54.20
2023-05-03T04:03:47.550Z,54.10
2023-05-03T04:06:14.448Z,54.10
2023-05-03T04:08:41.071Z,54.10
2023-05-03T04:11:12.373Z,54.30
2023-05-03T04:13:39.099Z,54.40
2023-05-03T04:16:06.498Z,54.00
2023-05-03T04:18:33.142Z,54.50
2023-05-03T04:20:59.704Z,54.20
2023-05-03T04:23:26.287Z,54.30
2023-05-03T04:25:52.897Z,54.00
2023-05-03T04:28:20.427Z,54.20
2023-05-03T04:30:47.357Z,53.80
2023-05-03T04:33:14.213Z,53.80
2023-05-03T04:35:41.389Z,53.90
2023-05-03T04:38:08.957Z,53.90
2023-05-03T04:40:35.822Z,53.70
2023-05-03T04:43:02.380Z,53.50
2023-05-03T04:45:28.972Z,53.40
2023-05-03T04:47:55.653Z,53.50
2023-05-03T04:50:22.274Z,53.40
2023-05-03T04:52:48.824Z,53.30
2023-05-03T04:55:15.472Z,53.40
2023-05-03T04:57:42.360Z,54.00
2023-05-03T05:00:12.408Z,53.50
2023-05-03T05:02:39.727Z,53.40
2023-05-03T05:05:06.712Z,54.10
2023-05-03T05:07:34.309Z,53.60
2023-05-03T05:10:01.063Z,53.60
2023-05-03T05:12:27.972Z,53.40
2023-05-03T05:14:54.555Z,53.80
2023-05-03T05:17:21.864Z,53.40
2023-05-03T05:19:48.700Z,53.90
2023-05-03T05:22:15.428Z,54.20
2023-05-03T05:24:41.983Z,53.50
2023-05-03T05:27:08.884Z,53.70
2023-05-03T05:29:35.518Z,53.60
2023-05-03T05:32:04.124Z,54.00
2023-05-03T05:34:39.133Z,53.50
2023-05-03T05:37:10.447Z,53.80
2023-05-03T05:39:37.013Z,53.30
2023-05-03T05:42:04.125Z,54.00
2023-05-03T05:44:30.964Z,53.70
2023-05-03T05:46:57.595Z,53.10
2023-05-03T05:49:24.227Z,54.00
2023-05-03T05:51:50.889Z,52.90
2023-05-03T05:54:17.437Z,53.10
2023-05-03T05:56:44.067Z,53.40
2023-05-03T05:59:11.199Z,53.10
2023-05-03T06:01:41.673Z,53.30
2023-05-03T06:04:08.526Z,53.30
2023-05-03T06:06:35.185Z,54.00
2023-05-03T06:09:09.755Z,53.10
2023-05-03T06:11:43.640Z,52.70
2023-05-03T06:14:10.476Z,52.60
2023-05-03T06:16:37.324Z,53.50
2023-05-03T06:19:05.006Z,53.80
2023-05-03T06:21:31.716Z,53.40
2023-05-03T06:23:58.352Z,53.50
2023-05-03T06:26:24.967Z,53.30
2023-05-03T06:28:52.414Z,53.20
2023-05-03T06:31:19.159Z,53.30
2023-05-03T06:33:46.159Z,53.00
2023-05-03T06:36:12.994Z,52.70
2023-05-03T06:38:39.826Z,52.70
2023-05-03T06:41:06.433Z,52.80
2023-05-03T06:43:33.051Z,52.50
2023-05-03T06:45:59.750Z,52.60
2023-05-03T06:48:26.393Z,52.40
2023-05-03T06:50:53.068Z,52.70
2023-05-03T06:53:19.718Z,52.40
2023-05-03T06:55:46.463Z,52.90
2023-05-03T06:58:13.079Z,52.80
2023-05-03T07:00:39.698Z,53.10
2023-05-03T07:03:07.112Z,52.50
2023-05-03T07:05:34.350Z,51.90
2023-05-03T07:08:01.007Z,52.00
2023-05-03T07:10:31.377Z,52.00
2023-05-03T07:12:58.245Z,50.80
2023-05-03T07:15:24.892Z,51.40
2023-05-03T07:17:51.516Z,51.30
2023-05-03T07:20:18.151Z,51.40
2023-05-03T07:22:45.164Z,51.60
2023-05-03T07:25:14.089Z,51.60
2023-05-03T07:27:40.808Z,51.20
2023-05-03T07:30:08.058Z,51.40
2023-05-03T07:32:34.857Z,52.00
2023-05-03T07:35:01.506Z,52.40
2023-05-03T07:37:28.162Z,51.70
2023-05-03T07:39:54.800Z,52.10
2023-05-03T07:42:27.530Z,52.00
2023-05-03T07:44:55.372Z,51.90
2023-05-03T07:47:22.382Z,52.20
2023-05-03T07:49:51.171Z,51.60
2023-05-03T07:52:18.052Z,52.20
2023-05-03T07:54:45.861Z,53.00
2023-05-03T07:57:16.349Z,51.90
2023-05-03T07:59:43.491Z,52.30
2023-05-03T08:02:10.406Z,52.80
2023-05-03T08:04:37.293Z,52.70
2023-05-03T08:07:04.385Z,51.70
2023-05-03T08:09:31.020Z,51.90
2023-05-03T08:11:57.647Z,52.70
2023-05-03T08:14:24.301Z,51.40
2023-05-03T08:16:51.458Z,51.90
2023-05-03T08:19:18.106Z,51.90
2023-05-03T08:21:44.754Z,51.90
2023-05-03T08:24:11.558Z,51.40
2023-05-03T08:26:38.227Z,52.20
2023-05-03T08:29:04.837Z,51.60
2023-05-03T08:31:31.654Z,52.80
2023-05-03T08:33:58.321Z,53.40
2023-05-03T08:36:25.018Z,52.20
2023-05-03T08:38:51.674Z,52.00
2023-05-03T08:41:29.673Z,51.20
2023-05-03T08:43:58.047Z,51.50
2023-05-03T08:46:28.314Z,51.80
2023-05-03T08:48:55.583Z,50.90
2023-05-03T08:51:23.230Z,49.80
2023-05-03T08:53:50.594Z,51.60
2023-05-03T08:56:23.560Z,51.90
2023-05-03T08:58:50.131Z,53.30
2023-05-03T09:01:16.831Z,52.60
2023-05-03T09:03:49.571Z,52.90
2023-05-03T09:06:20.143Z,53.60
2023-05-03T09:08:46.766Z,52.70
2023-05-03T09:11:23.492Z,52.70
2023-05-03T09:13:51.045Z,51.30
2023-05-03T09:16:24.835Z,49.80
2023-05-03T09:19:01.452Z,50.30
2023-05-03T09:21:28.641Z,50.60
2023-05-03T09:23:55.372Z,49.10
2023-05-03T09:26:28.329Z,49.20
2023-05-03T09:28:56.445Z,50.50
2023-05-03T09:31:23.478Z,51.50
2023-05-03T09:33:50.115Z,51.10
2023-05-03T09:36:16.708Z,47.80
2023-05-03T09:38:43.317Z,49.10
2023-05-03T09:41:10.526Z,48.70
2023-05-03T09:43:47.747Z,48.10
2023-05-03T09:46:14.363Z,48.60
2023-05-03T09:48:41.336Z,47.80
2023-05-03T09:51:08.692Z,47.80
2023-05-03T09:53:36.061Z,50.20
2023-05-03T09:56:03.253Z,49.70
2023-05-03T09:58:30.961Z,50.20
2023-05-03T10:00:57.540Z,50.60
2023-05-03T10:03:32.140Z,49.70
2023-05-03T10:06:02.737Z,49.60
2023-05-03T10:08:32.217Z,50.00
2023-05-03T10:10:58.774Z,51.00
2023-05-03T10:13:25.860Z,52.00
2023-05-03T10:15:56.314Z,50.10
2023-05-03T10:18:24.836Z,51.40
2023-05-03T10:20:55.278Z,52.50
2023-05-03T10:23:21.830Z,51.80
2023-05-03T10:26:13.332Z,51.70
2023-05-03T10:28:39.971Z,50.60
2023-05-03T10:31:06.558Z,50.00
2023-05-03T10:33:36.057Z,50.80
2023-05-03T10:36:06.690Z,51.90
2023-05-03T10:38:33.554Z,53.10
2023-05-03T10:41:03.658Z,53.10
2023-05-03T10:43:33.459Z,51.90
2023-05-03T10:46:04.062Z,53.10
2023-05-03T10:48:31.620Z,53.50
2023-05-03T10:51:18.504Z,53.10
2023-05-03T10:53:45.068Z,50.60
2023-05-03T10:56:12.492Z,51.70
2023-05-03T10:58:45.979Z,52.30
2023-05-03T11:01:13.924Z,51.40
2023-05-03T11:03:45.697Z,51.30
2023-05-03T11:06:27.003Z,52.50
2023-05-03T11:08:53.781Z,52.70
2023-05-03T11:11:20.604Z,53.00
2023-05-03T11:13:47.892Z,51.80
2023-05-03T11:16:14.536Z,53.50
2023-05-03T11:18:42.044Z,54.10
2023-05-03T11:21:09.772Z,53.60
2023-05-03T11:23:38.206Z,52.40
2023-05-03T11:26:07.984Z,51.10
2023-05-03T11:28:34.593Z,51.00
2023-05-03T11:31:02.169Z,52.00
2023-05-03T11:33:30.973Z,50.90
2023-05-03T11:35:57.583Z,50.40
2023-05-03T11:38:24.191Z,50.40
2023-05-03T11:40:51.695Z,51.10
2023-05-03T11:43:18.374Z,51.00
2023-05-03T11:45:45.967Z,51.20
2023-05-03T11:48:13.506Z,51.20
2023-05-03T11:50:47.069Z,50.10
2023-05-03T11:53:14.220Z,50.40
2023-05-03T11:55:42.352Z,51.00
2023-05-03T11:58:15.974Z,50.20
2023-05-03T12:00:49.327Z,50.30
2023-05-03T12:03:25.755Z,50.10
2023-05-03T12:05:56.386Z,50.10
2023-05-03T12:08:30.075Z,50.80
2023-05-03T12:10:58.943Z,50.90
2023-05-03T12:13:34.201Z,51.00
2023-05-03T12:16:11.961Z,50.70
2023-05-03T12:18:52.601Z,50.10
2023-05-03T12:23:55.745Z,50.30
2023-05-03T12:26:25.394Z,50.10
2023-05-03T12:28:55.266Z,50.60
2023-05-03T12:31:23.286Z,51.10
2023-05-03T12:34:12.289Z,51.30
2023-05-03T12:36:38.172Z,52.30
2023-05-03T12:39:10.110Z,51.60
2023-05-03T12:44:10.130Z,51.00
2023-05-03T12:46:38.371Z,51.60
2023-05-03T12:49:08.052Z,50.50
2023-05-03T12:51:35.483Z,50.60
2023-05-03T12:54:03.626Z,51.90
2023-05-03T12:56:32.729Z,50.80
2023-05-03T12:59:28.586Z,50.40
2023-05-03T13:03:09.898Z,50.60
2023-05-03T13:04:57.096Z,51.00
2023-05-03T13:07:27.856Z,51.10
2023-05-03T13:12:26.191Z,52.90
2023-05-03T13:14:53.831Z,51.60
2023-05-03T13:17:22.492Z,52.80
2023-05-03T13:19:50.095Z,51.80
2023-05-03T13:22:17.029Z,51.60
2023-05-03T13:24:44.502Z,52.30
2023-05-03T13:27:13.841Z,53.10
2023-05-03T13:29:40.975Z,51.80
2023-05-03T13:32:08.295Z,53.20
2023-05-03T13:34:35.576Z,53.20
2023-05-03T13:37:02.612Z,54.10
2023-05-03T13:39:29.476Z,52.60
2023-05-03T13:41:56.177Z,52.70
2023-05-03T13:44:25.313Z,52.20
2023-05-03T13:46:52.547Z,52.10
2023-05-03T13:49:19.409Z,51.40
2023-05-03T13:51:45.990Z,53.40
2023-05-03T13:54:12.731Z,51.00
2023-05-03T13:56:40.516Z,51.20
2023-05-03T13:59:08.109Z,51.30
2023-05-03T14:01:35.424Z,51.80
2023-05-03T14:04:02.289Z,53.50
2023-05-03T14:06:31.146Z,52.30
2023-05-03T14:09:01.289Z,54.00
2023-05-03T14:11:28.566Z,51.60
2023-05-03T14:13:57.577Z,51.40
2023-05-03T14:16:38.951Z,53.80
2023-05-03T14:19:10.122Z,51.90
2023-05-03T14:21:37.260Z,51.00
2023-05-03T14:24:04.054Z,52.20
2023-05-03T14:26:30.685Z,51.80
2023-05-03T14:28:58.709Z,53.20
2023-05-03T14:31:25.640Z,52.40
2023-05-03T14:33:52.244Z,52.20
2023-05-03T14:36:18.866Z,51.90
2023-05-03T14:38:45.429Z,52.00
2023-05-03T14:41:12.093Z,52.20
2023-05-03T14:43:39.031Z,53.00
2023-05-03T14:46:05.670Z,53.10
2023-05-03T14:48:32.221Z,53.40
2023-05-03T14:50:58.903Z,53.10
2023-05-03T14:53:25.469Z,53.70
2023-05-03T14:55:53.785Z,53.90
2023-05-03T14:58:20.514Z,52.20
2023-05-03T15:00:47.366Z,53.60
2023-05-03T15:03:14.199Z,52.50
2023-05-03T15:05:47.573Z,51.80
2023-05-03T15:08:15.158Z,51.50
2023-05-03T15:10:42.589Z,52.10
2023-05-03T15:13:10.217Z,51.70
2023-05-03T15:15:37.535Z,53.50
2023-05-03T15:18:05.507Z,53.30
2023-05-03T15:20:32.331Z,53.70
2023-05-03T15:22:58.907Z,53.80
2023-05-03T15:25:25.780Z,53.80
2023-05-03T15:27:52.530Z,54.00
2023-05-03T15:30:19.261Z,52.20
2023-05-03T15:32:45.860Z,52.30
2023-05-03T15:35:12.902Z,54.80
2023-05-03T15:37:39.625Z,52.90
2023-05-03T15:40:09.201Z,54.20
2023-05-03T15:42:36.230Z,53.30
2023-05-03T15:45:03.710Z,53.60
2023-05-03T15:47:30.514Z,52.10
2023-05-03T15:49:57.840Z,52.00
2023-05-03T15:52:24.606Z,53.10
2023-05-03T15:54:51.601Z,53.20
2023-05-03T15:57:18.551Z,53.30
2023-05-03T15:59:46.438Z,53.20
2023-05-03T16:02:13.085Z,53.40
2023-05-03T16:04:39.771Z,53.80
2023-05-03T16:07:07.474Z,54.90
2023-05-03T16:09:34.088Z,55.90
2023-05-03T16:12:00.671Z,56.50
2023-05-03T16:14:27.323Z,54.40
2023-05-03T16:16:54.048Z,58.50
2023-05-03T16:19:21.489Z,59.20
2023-05-03T16:21:48.074Z,58.50
2023-05-03T16:24:14.958Z,56.00
2023-05-03T16:26:41.630Z,53.30
2023-05-03T16:29:08.254Z,53.90
2023-05-03T16:31:34.908Z,54.20
2023-05-03T16:34:02.616Z,54.40
2023-05-03T16:36:30.243Z,54.30
2023-05-03T16:38:56.879Z,53.00
2023-05-03T16:41:24.255Z,53.10
2023-05-03T16:43:51.182Z,52.50
2023-05-03T16:46:17.762Z,54.00
2023-05-03T16:48:44.315Z,53.20
2023-05-03T16:51:10.884Z,53.30
2023-05-03T16:53:37.439Z,54.20
2023-05-03T16:56:04.077Z,56.00
2023-05-03T16:58:30.596Z,55.30
2023-05-03T17:00:57.860Z,54.50
2023-05-03T17:03:25.290Z,54.50
2023-05-03T17:05:52.088Z,55.40
2023-05-03T17:08:18.678Z,54.90
2023-05-03T17:10:45.278Z,55.10
2023-05-03T17:13:11.972Z,57.40
2023-05-03T17:15:39.032Z,57.10
2023-05-03T17:18:05.773Z,56.10
2023-05-03T17:20:33.245Z,55.40
2023-05-03T17:22:59.797Z,55.40
2023-05-03T17:25:26.466Z,55.70
2023-05-03T17:27:53.047Z,55.90
2023-05-03T17:30:22.715Z,56.20
2023-05-03T17:32:49.512Z,56.80
2023-05-03T17:35:16.605Z,58.40
2023-05-03T17:37:44.396Z,57.50
2023-05-03T17:40:11.082Z,56.20
2023-05-03T17:42:37.659Z,56.50
2023-05-03T17:45:05.221Z,57.30
2023-05-03T17:47:31.858Z,57.10
2023-05-03T17:49:58.421Z,57.30
2023-05-03T17:52:24.987Z,57.30
2023-05-03T17:54:52.300Z,58.00
2023-05-03T17:57:20.592Z,59.90
2023-05-03T17:59:48.345Z,59.30
2023-05-03T18:02:14.945Z,58.90
2023-05-03T18:04:41.534Z,58.00
2023-05-03T18:07:08.310Z,56.90
2023-05-03T18:09:34.918Z,56.40
2023-05-03T18:12:02.945Z,56.20
2023-05-03T18:14:29.631Z,56.80
2023-05-03T18:16:56.199Z,55.70
2023-05-03T18:19:22.863Z,55.80
2023-05-03T18:21:49.467Z,56.50
2023-05-03T18:24:16.393Z,55.50
2023-05-03T18:26:43.075Z,55.50
2023-05-03T18:29:10.037Z,56.10
2023-05-03T18:31:36.802Z,55.40
2023-05-03T18:34:03.662Z,55.60
2023-05-03T18:36:31.265Z,55.90
2023-05-03T18:38:57.882Z,57.20
2023-05-03T18:41:24.494Z,56.10
2023-05-03T18:43:52.017Z,56.50
2023-05-03T18:46:19.350Z,57.70
2023-05-03T18:48:49.643Z,56.50
2023-05-03T18:51:16.449Z,56.40
2023-05-03T18:53:43.449Z,56.70
2023-05-03T18:56:10.141Z,57.00
2023-05-03T18:58:36.731Z,57.60
2023-05-03T19:01:04.843Z,57.40
2023-05-03T19:03:31.600Z,58.00
2023-05-03T19:06:02.645Z,58.60
2023-05-03T19:08:29.679Z,59.60
2023-05-03T19:10:56.654Z,57.90
2023-05-03T19:13:23.270Z,57.70
2023-05-03T19:15:50.046Z,57.70
2023-05-03T19:18:16.797Z,57.90
2023-05-03T19:20:43.854Z,57.80
2023-05-03T19:23:10.438Z,58.40
2023-05-03T19:25:37.929Z,58.40
2023-05-03T19:28:06.620Z,58.00
2023-05-03T19:30:33.824Z,58.70
2023-05-03T19:33:00.865Z,58.20
2023-05-03T19:35:27.502Z,60.10
2023-05-03T19:37:54.198Z,58.30
2023-05-03T19:40:22.312Z,57.60
2023-05-03T19:42:50.507Z,58.00
2023-05-03T19:45:17.203Z,57.60
2023-05-03T19:47:44.405Z,57.80
2023-05-03T19:50:11.516Z,57.80
2023-05-03T19:52:38.457Z,57.80
2023-05-03T19:55:07.552Z,58.40
2023-05-03T19:57:34.651Z,59.40
2023-05-03T20:00:01.459Z,58.00
2023-05-03T20:02:28.361Z,57.80
2023-05-03T20:04:54.990Z,58.70
2023-05-03T20:07:21.657Z,57.80
2023-05-03T20:09:48.198Z,57.50
2023-05-03T20:12:14.894Z,58.10
2023-05-03T20:14:41.585Z,57.60
2023-05-03T20:17:08.163Z,58.00
2023-05-03T20:19:34.740Z,58.20
2023-05-03T20:22:01.288Z,59.30
2023-05-03T20:24:27.841Z,59.50
2023-05-03T20:26:54.484Z,58.10
2023-05-03T20:29:21.082Z,57.70
2023-05-03T20:31:48.516Z,57.70
2023-05-03T20:34:15.357Z,58.10
2023-05-03T20:36:41.947Z,58.00
2023-05-03T20:39:09.635Z,57.80
2023-05-03T20:41:36.360Z,57.70
2023-05-03T20:44:04.040Z,57.80
2023-05-03T20:46:30.817Z,59.10
2023-05-03T20:48:57.662Z,59.20
2023-05-03T20:51:24.295Z,58.10
2023-05-03T20:53:50.928Z,57.90
2023-05-03T20:56:17.500Z,58.00
2023-05-03T20:58:44.842Z,59.90
2023-05-03T21:01:11.618Z,58.80
2023-05-03T21:03:38.257Z,58.40
2023-05-03T21:06:05.858Z,57.90
2023-05-03T21:08:32.493Z,58.40
2023-05-03T21:10:59.035Z,60.30
2023-05-03T21:13:25.636Z,59.80
2023-05-03T21:15:52.239Z,59.20
2023-05-03T21:18:19.069Z,58.70
2023-05-03T21:20:45.675Z,57.80
2023-05-03T21:23:12.438Z,58.70
2023-05-03T21:25:39.030Z,58.70
2023-05-03T21:28:05.676Z,59.60
2023-05-03T21:30:32.307Z,59.70
2023-05-03T21:32:58.932Z,59.50
2023-05-03T21:35:25.836Z,58.10
2023-05-03T21:37:52.465Z,57.50
2023-05-03T21:40:20.408Z,57.00
2023-05-03T21:42:49.296Z,56.90
2023-05-03T21:45:16.743Z,58.90
2023-05-03T21:47:43.473Z,59.10
2023-05-03T21:50:10.182Z,58.70
2023-05-03T21:52:36.780Z,59.00
2023-05-03T21:55:03.531Z,59.10
2023-05-03T21:57:31.903Z,58.80
2023-05-03T21:59:59.771Z,58.40
2023-05-03T22:02:26.605Z,57.30
2023-05-03T22:04:53.380Z,58.00
2023-05-03T22:07:19.987Z,58.20
2023-05-03T22:09:47.437Z,58.20
2023-05-03T22:12:23.519Z,58.50
2023-05-03T22:14:51.325Z,58.40
2023-05-03T22:17:17.921Z,58.20
2023-05-03T22:19:44.515Z,58.30
2023-05-03T22:22:11.421Z,58.20
2023-05-03T22:24:37.999Z,58.20
2023-05-03T22:27:04.774Z,58.10
2023-05-03T22:29:31.518Z,57.30
2023-05-03T22:31:58.629Z,57.10
2023-05-03T22:34:25.252Z,57.00
2023-05-03T22:36:51.849Z,56.70
2023-05-03T22:39:18.418Z,57.70
2023-05-03T22:41:45.164Z,57.40
2023-05-03T22:44:11.748Z,57.30
2023-05-03T22:46:38.424Z,57.80
2023-05-03T22:49:05.254Z,57.90
2023-05-03T22:51:32.451Z,57.50
2023-05-03T22:53:59.046Z,58.20
2023-05-03T22:56:25.633Z,57.60
2023-05-03T22:58:52.217Z,56.50
2023-05-03T23:01:19.243Z,56.40
2023-05-03T23:03:46.336Z,56.60
2023-05-03T23:06:13.037Z,56.50
2023-05-03T23:08:39.865Z,56.80
2023-05-03T23:11:06.427Z,55.90
2023-05-03T23:13:33.094Z,56.30
2023-05-03T23:15:59.822Z,56.40
2023-05-03T23:18:28.196Z,56.50
2023-05-03T23:20:55.296Z,56.70
2023-05-03T23:23:21.933Z,56.40
2023-05-03T23:25:48.519Z,56.40
2023-05-03T23:28:15.072Z,56.10
2023-05-03T23:30:43.272Z,55.60
2023-05-03T23:33:10.651Z,56.80
2023-05-03T23:35:37.782Z,56.80
2023-05-03T23:38:04.356Z,56.60
2023-05-03T23:40:31.262Z,56.00
2023-05-03T23:42:57.815Z,56.00
2023-05-03T23:45:24.600Z,56.30
2023-05-03T23:47:51.190Z,56.40
2023-05-03T23:50:17.840Z,56.20
2023-05-03T23:52:44.384Z,56.50
2023-05-03T23:55:11.087Z,55.80
2023-05-03T23:57:37.765Z,55.60
